sensor_id;sensor_type;location;lat;lon;timestamp;temperature;humidity
21805;DHT22;11064;47.102;15.452;2024-01-25T05:01:55;7.70;84.10
21805;DHT22;11064;47.102;15.452;2024-01-25T05:04:25;7.70;83.70
21805;DHT22;11064;47.102;15.452;2024-01-25T05:06:50;7.80;83.60
21805;DHT22;11064;47.102;15.452;2024-01-25T05:09:16;7.80;83.90
21805;DHT22;11064;47.102;15.452;2024-01-25T05:11:42;7.70;84.50
21805;DHT22;11064;47.102;15.452;2024-01-25T05:14:08;7.50;85.50
21805;DHT22;11064;47.102;15.452;2024-01-25T05:16:34;7.30;86.50
21805;DHT22;11064;47.102;15.452;2024-01-25T05:19:01;7.20;87.20
21805;DHT22;11064;47.102;15.452;2024-01-25T05:21:27;7.20;87.00
21805;DHT22;11064;47.102;15.452;2024-01-25T05:23:52;7.20;87.00
21805;DHT22;11064;47.102;15.452;2024-01-25T05:26:19;7.20;87.40
21805;DHT22;11064;47.102;15.452;2024-01-25T05:28:44;7.20;88.00
21805;DHT22;11064;47.102;15.452;2024-01-25T05:31:10;7.20;88.30
21805;DHT22;11064;47.102;15.452;2024-01-25T05:33:41;7.10;89.40
21805;DHT22;11064;47.102;15.452;2024-01-25T05:36:07;7.00;89.90
21805;DHT22;11064;47.102;15.452;2024-01-25T05:38:33;6.90;90.20
21805;DHT22;11064;47.102;15.452;2024-01-25T05:40:59;7.00;90.50
21805;DHT22;11064;47.102;15.452;2024-01-25T05:43:25;6.90;90.80
21805;DHT22;11064;47.102;15.452;2024-01-25T05:45:51;6.80;91.20
21805;DHT22;11064;47.102;15.452;2024-01-25T05:48:16;6.70;91.70
21805;DHT22;11064;47.102;15.452;2024-01-25T05:50:43;6.80;91.80
21805;DHT22;11064;47.102;15.452;2024-01-25T05:53:09;6.90;92.10
21805;DHT22;11064;47.102;15.452;2024-01-25T05:55:34;6.80;92.10
21805;DHT22;11064;47.102;15.452;2024-01-25T05:58:00;6.70;92.60
21805;DHT22;11064;47.102;15.452;2024-01-25T06:00:26;6.60;92.90
21805;DHT22;11064;47.102;15.452;2024-01-25T06:02:54;6.60;93.30
21805;DHT22;11064;47.102;15.452;2024-01-25T06:05:20;6.60;93.70
21805;DHT22;11064;47.102;15.452;2024-01-25T06:07:45;6.50;94.00
21805;DHT22;11064;47.102;15.452;2024-01-25T06:10:11;6.50;94.30
21805;DHT22;11064;47.102;15.452;2024-01-25T06:12:37;6.50;94.80
21805;DHT22;11064;47.102;15.452;2024-01-25T06:15:03;6.40;95.10
21805;DHT22;11064;47.102;15.452;2024-01-25T06:17:30;6.30;95.50
21805;DHT22;11064;47.102;15.452;2024-01-25T06:19:56;6.30;95.80
21805;DHT22;11064;47.102;15.452;2024-01-25T06:22:22;6.20;96.10
21805;DHT22;11064;47.102;15.452;2024-01-25T06:24:48;6.30;96.30
21805;DHT22;11064;47.102;15.452;2024-01-25T06:27:14;6.30;96.50
21805;DHT22;11064;47.102;15.452;2024-01-25T06:29:40;6.20;96.90
21805;DHT22;11064;47.102;15.452;2024-01-25T06:32:06;6.20;97.30
21805;DHT22;11064;47.102;15.452;2024-01-25T06:34:32;6.20;97.70
21805;DHT22;11064;47.102;15.452;2024-01-25T06:36:58;6.20;97.70
21805;DHT22;11064;47.102;15.452;2024-01-25T06:39:23;6.20;97.80
21805;DHT22;11064;47.102;15.452;2024-01-25T06:41:49;6.30;98.10
21805;DHT22;11064;47.102;15.452;2024-01-25T06:44:15;6.30;97.90
21805;DHT22;11064;47.102;15.452;2024-01-25T06:46:42;6.40;97.80
21805;DHT22;11064;47.102;15.452;2024-01-25T06:49:08;6.40;98.40
21805;DHT22;11064;47.102;15.452;2024-01-25T06:51:34;6.30;98.80
21805;DHT22;11064;47.102;15.452;2024-01-25T06:54:00;6.40;98.90
21805;DHT22;11064;47.102;15.452;2024-01-25T06:56:25;6.70;98.20
21805;DHT22;11064;47.102;15.452;2024-01-25T06:58:51;6.70;98.10
21805;DHT22;11064;47.102;15.452;2024-01-25T07:01:23;6.70;98.20
21805;DHT22;11064;47.102;15.452;2024-01-25T07:03:49;6.70;98.30
21805;DHT22;11064;47.102;15.452;2024-01-25T07:06:18;6.90;98.50
21805;DHT22;11064;47.102;15.452;2024-01-25T07:08:45;6.90;98.80
21805;DHT22;11064;47.102;15.452;2024-01-25T07:11:11;6.90;99.10
21805;DHT22;11064;47.102;15.452;2024-01-25T07:13:37;6.90;99.20
21805;DHT22;11064;47.102;15.452;2024-01-25T07:16:03;7.00;99.00
21805;DHT22;11064;47.102;15.452;2024-01-25T07:18:29;7.10;99.30
21805;DHT22;11064;47.102;15.452;2024-01-25T07:20:55;7.20;99.50
21805;DHT22;11064;47.102;15.452;2024-01-25T07:23:21;7.10;99.90
21805;DHT22;11064;47.102;15.452;2024-01-25T07:25:48;7.10;99.90
21805;DHT22;11064;47.102;15.452;2024-01-25T07:28:13;7.00;99.90
21805;DHT22;11064;47.102;15.452;2024-01-25T07:30:39;7.00;99.90
21805;DHT22;11064;47.102;15.452;2024-01-25T07:33:05;7.00;99.90
21805;DHT22;11064;47.102;15.452;2024-01-25T07:35:32;7.00;99.90
21805;DHT22;11064;47.102;15.452;2024-01-25T07:37:57;7.10;99.90
21805;DHT22;11064;47.102;15.452;2024-01-25T07:40:23;7.20;99.90
21805;DHT22;11064;47.102;15.452;2024-01-25T07:42:49;7.10;99.90
21805;DHT22;11064;47.102;15.452;2024-01-25T07:45:15;7.00;99.90
21805;DHT22;11064;47.102;15.452;2024-01-25T07:47:41;7.00;99.90
21805;DHT22;11064;47.102;15.452;2024-01-25T07:50:07;6.80;99.90
21805;DHT22;11064;47.102;15.452;2024-01-25T07:52:33;6.80;99.90
21805;DHT22;11064;47.102;15.452;2024-01-25T07:54:59;6.80;99.90
21805;DHT22;11064;47.102;15.452;2024-01-25T07:57:25;6.80;99.90
21805;DHT22;11064;47.102;15.452;2024-01-25T07:59:51;6.80;99.90
21805;DHT22;11064;47.102;15.452;2024-01-25T08:02:17;6.80;99.90
21805;DHT22;11064;47.102;15.452;2024-01-25T08:04:43;6.80;99.90
21805;DHT22;11064;47.102;15.452;2024-01-25T08:07:08;6.80;99.90
21805;DHT22;11064;47.102;15.452;2024-01-25T08:09:34;6.80;99.90
21805;DHT22;11064;47.102;15.452;2024-01-25T08:12:00;6.90;99.90
21805;DHT22;11064;47.102;15.452;2024-01-25T08:14:26;7.00;99.90
21805;DHT22;11064;47.102;15.452;2024-01-25T08:16:51;7.00;99.90
21805;DHT22;11064;47.102;15.452;2024-01-25T08:19:17;7.20;99.90
21805;DHT22;11064;47.102;15.452;2024-01-25T08:21:43;7.20;99.90
21805;DHT22;11064;47.102;15.452;2024-01-25T08:24:09;7.30;99.90
21805;DHT22;11064;47.102;15.452;2024-01-25T08:26:34;7.30;99.90
21805;DHT22;11064;47.102;15.452;2024-01-25T08:29:01;7.30;99.90
21805;DHT22;11064;47.102;15.452;2024-01-25T08:31:27;7.40;99.90
21805;DHT22;11064;47.102;15.452;2024-01-25T08:33:53;7.50;99.90
21805;DHT22;11064;47.102;15.452;2024-01-25T08:36:18;7.60;99.90
21805;DHT22;11064;47.102;15.452;2024-01-25T08:38:45;7.60;99.90
21805;DHT22;11064;47.102;15.452;2024-01-25T08:41:11;7.70;99.90
21805;DHT22;11064;47.102;15.452;2024-01-25T08:43:37;7.60;99.90
21805;DHT22;11064;47.102;15.452;2024-01-25T08:46:03;7.70;99.70
21805;DHT22;11064;47.102;15.452;2024-01-25T08:48:29;7.80;99.20
21805;DHT22;11064;47.102;15.452;2024-01-25T08:50:54;7.90;98.50
21805;DHT22;11064;47.102;15.452;2024-01-25T08:53:20;8.00;98.40
21805;DHT22;11064;47.102;15.452;2024-01-25T08:55:48;7.90;98.50
21805;DHT22;11064;47.102;15.452;2024-01-25T08:58:14;8.00;97.40
21805;DHT22;11064;47.102;15.452;2024-01-25T09:00:40;8.10;97.00
21805;DHT22;11064;47.102;15.452;2024-01-25T09:03:05;8.10;96.80
21805;DHT22;11064;47.102;15.452;2024-01-25T09:05:31;8.20;96.40
21805;DHT22;11064;47.102;15.452;2024-01-25T09:08:00;8.20;95.90
21805;DHT22;11064;47.102;15.452;2024-01-25T09:10:26;8.20;95.70
21805;DHT22;11064;47.102;15.452;2024-01-25T09:12:51;8.30;95.00
21805;DHT22;11064;47.102;15.452;2024-01-25T09:15:17;8.30;94.30
21805;DHT22;11064;47.102;15.452;2024-01-25T09:17:43;8.40;94.00
21805;DHT22;11064;47.102;15.452;2024-01-25T09:20:11;8.50;92.30
21805;DHT22;11064;47.102;15.452;2024-01-25T09:22:36;8.60;91.70
21805;DHT22;11064;47.102;15.452;2024-01-25T09:25:03;8.60;90.80
21805;DHT22;11064;47.102;15.452;2024-01-25T09:27:29;8.60;90.90
21805;DHT22;11064;47.102;15.452;2024-01-25T09:29:55;8.70;90.70
21805;DHT22;11064;47.102;15.452;2024-01-25T09:32:21;8.70;90.00
21805;DHT22;11064;47.102;15.452;2024-01-25T09:34:47;8.80;89.50
21805;DHT22;11064;47.102;15.452;2024-01-25T09:37:13;8.80;87.90
21805;DHT22;11064;47.102;15.452;2024-01-25T09:39:40;8.80;86.50
21805;DHT22;11064;47.102;15.452;2024-01-25T09:42:07;9.00;85.30
21805;DHT22;11064;47.102;15.452;2024-01-25T09:44:33;9.00;84.50
21805;DHT22;11064;47.102;15.452;2024-01-25T09:47:04;9.10;84.10
21805;DHT22;11064;47.102;15.452;2024-01-25T09:49:31;9.10;82.60
21805;DHT22;11064;47.102;15.452;2024-01-25T09:51:58;9.10;83.60
21805;DHT22;11064;47.102;15.452;2024-01-25T09:54:35;9.10;82.30
21805;DHT22;11064;47.102;15.452;2024-01-25T09:57:08;9.10;82.70
21805;DHT22;11064;47.102;15.452;2024-01-25T09:59:38;9.20;81.50
21805;DHT22;11064;47.102;15.452;2024-01-25T10:02:03;9.20;81.70
21805;DHT22;11064;47.102;15.452;2024-01-25T10:04:30;9.20;81.20
21805;DHT22;11064;47.102;15.452;2024-01-25T10:06:56;9.30;78.20
21805;DHT22;11064;47.102;15.452;2024-01-25T10:09:22;9.40;76.30
21805;DHT22;11064;47.102;15.452;2024-01-25T10:11:49;9.40;76.50
21805;DHT22;11064;47.102;15.452;2024-01-25T10:14:15;9.40;77.20
21805;DHT22;11064;47.102;15.452;2024-01-25T10:16:40;9.40;75.10
21805;DHT22;11064;47.102;15.452;2024-01-25T10:19:07;9.40;74.20
21805;DHT22;11064;47.102;15.452;2024-01-25T10:21:36;9.40;74.40
21805;DHT22;11064;47.102;15.452;2024-01-25T10:24:02;9.50;71.90
21805;DHT22;11064;47.102;15.452;2024-01-25T10:26:29;9.50;71.80
21805;DHT22;11064;47.102;15.452;2024-01-25T10:28:55;9.50;73.20
21805;DHT22;11064;47.102;15.452;2024-01-25T10:31:24;9.50;72.00
21805;DHT22;11064;47.102;15.452;2024-01-25T10:33:53;9.50;73.30
21805;DHT22;11064;47.102;15.452;2024-01-25T10:36:22;9.60;72.00
21805;DHT22;11064;47.102;15.452;2024-01-25T10:38:49;9.60;70.10
21805;DHT22;11064;47.102;15.452;2024-01-25T10:41:19;9.60;71.10
21805;DHT22;11064;47.102;15.452;2024-01-25T10:43:46;9.70;69.00
21805;DHT22;11064;47.102;15.452;2024-01-25T10:46:12;9.70;67.60
21805;DHT22;11064;47.102;15.452;2024-01-25T10:48:38;9.80;67.40
21805;DHT22;11064;47.102;15.452;2024-01-25T10:51:05;9.90;67.30
21805;DHT22;11064;47.102;15.452;2024-01-25T10:53:33;9.90;69.60
21805;DHT22;11064;47.102;15.452;2024-01-25T10:56:00;9.90;66.90
21805;DHT22;11064;47.102;15.452;2024-01-25T10:58:34;10.00;65.90
21805;DHT22;11064;47.102;15.452;2024-01-25T11:01:01;10.00;66.30
21805;DHT22;11064;47.102;15.452;2024-01-25T11:03:29;10.00;66.90
21805;DHT22;11064;47.102;15.452;2024-01-25T11:06:10;9.90;66.70
21805;DHT22;11064;47.102;15.452;2024-01-25T11:08:39;10.00;65.70
21805;DHT22;11064;47.102;15.452;2024-01-25T11:11:13;10.00;65.60
21805;DHT22;11064;47.102;15.452;2024-01-25T11:13:40;9.90;66.30
21805;DHT22;11064;47.102;15.452;2024-01-25T11:16:16;9.90;65.20
21805;DHT22;11064;47.102;15.452;2024-01-25T11:18:54;10.00;63.90
21805;DHT22;11064;47.102;15.452;2024-01-25T11:21:27;10.00;65.00
21805;DHT22;11064;47.102;15.452;2024-01-25T11:24:01;10.00;64.50
21805;DHT22;11064;47.102;15.452;2024-01-25T11:26:27;10.10;63.40
21805;DHT22;11064;47.102;15.452;2024-01-25T11:28:53;10.10;64.20
21805;DHT22;11064;47.102;15.452;2024-01-25T11:31:19;10.20;63.00
21805;DHT22;11064;47.102;15.452;2024-01-25T11:33:45;10.30;62.80
21805;DHT22;11064;47.102;15.452;2024-01-25T11:36:11;10.30;63.00
21805;DHT22;11064;47.102;15.452;2024-01-25T11:38:37;10.30;64.20
21805;DHT22;11064;47.102;15.452;2024-01-25T11:41:02;10.30;64.30
21805;DHT22;11064;47.102;15.452;2024-01-25T11:43:28;10.30;64.40
21805;DHT22;11064;47.102;15.452;2024-01-25T11:45:54;10.20;66.00
21805;DHT22;11064;47.102;15.452;2024-01-25T11:48:20;10.10;65.40
21805;DHT22;11064;47.102;15.452;2024-01-25T11:50:46;10.10;65.40
21805;DHT22;11064;47.102;15.452;2024-01-25T11:53:12;10.20;63.50
21805;DHT22;11064;47.102;15.452;2024-01-25T11:55:38;10.20;64.10
21805;DHT22;11064;47.102;15.452;2024-01-25T11:58:04;10.30;63.80
21805;DHT22;11064;47.102;15.452;2024-01-25T12:00:30;10.30;64.90
21805;DHT22;11064;47.102;15.452;2024-01-25T12:02:56;10.30;64.00
21805;DHT22;11064;47.102;15.452;2024-01-25T12:05:22;10.30;64.40
21805;DHT22;11064;47.102;15.452;2024-01-25T12:07:47;10.30;63.70
21805;DHT22;11064;47.102;15.452;2024-01-25T12:10:16;10.30;63.70
21805;DHT22;11064;47.102;15.452;2024-01-25T12:12:45;10.30;64.40
21805;DHT22;11064;47.102;15.452;2024-01-25T12:15:11;10.20;65.40
21805;DHT22;11064;47.102;15.452;2024-01-25T12:17:38;10.10;67.40
21805;DHT22;11064;47.102;15.452;2024-01-25T12:20:07;10.10;66.70
21805;DHT22;11064;47.102;15.452;2024-01-25T12:22:37;10.00;66.50
21805;DHT22;11064;47.102;15.452;2024-01-25T12:25:07;10.10;66.70
21805;DHT22;11064;47.102;15.452;2024-01-25T12:27:35;10.10;66.30
21805;DHT22;11064;47.102;15.452;2024-01-25T12:30:03;10.10;66.20
21805;DHT22;11064;47.102;15.452;2024-01-25T12:32:29;10.10;66.40
21805;DHT22;11064;47.102;15.452;2024-01-25T12:34:57;10.10;66.60
21805;DHT22;11064;47.102;15.452;2024-01-25T12:37:23;10.10;67.00
21805;DHT22;11064;47.102;15.452;2024-01-25T12:39:52;10.10;67.40
21805;DHT22;11064;47.102;15.452;2024-01-25T12:42:19;10.00;68.50
21805;DHT22;11064;47.102;15.452;2024-01-25T12:44:45;9.90;67.70
21805;DHT22;11064;47.102;15.452;2024-01-25T12:47:11;10.00;67.30
21805;DHT22;11064;47.102;15.452;2024-01-25T12:49:42;9.90;68.10
21805;DHT22;11064;47.102;15.452;2024-01-25T12:52:13;9.90;67.80
21805;DHT22;11064;47.102;15.452;2024-01-25T12:54:40;9.90;69.30
21805;DHT22;11064;47.102;15.452;2024-01-25T12:57:06;9.90;68.80
21805;DHT22;11064;47.102;15.452;2024-01-25T12:59:33;9.90;67.00
21805;DHT22;11064;47.102;15.452;2024-01-25T13:02:00;10.00;66.70
21805;DHT22;11064;47.102;15.452;2024-01-25T13:04:26;10.00;66.50
21805;DHT22;11064;47.102;15.452;2024-01-25T13:06:53;10.00;66.50
21805;DHT22;11064;47.102;15.452;2024-01-25T13:09:20;10.00;65.80
21805;DHT22;11064;47.102;15.452;2024-01-25T13:11:47;10.00;66.70
21805;DHT22;11064;47.102;15.452;2024-01-25T13:14:13;9.90;67.60
21805;DHT22;11064;47.102;15.452;2024-01-25T13:16:39;9.80;66.90
21805;DHT22;11064;47.102;15.452;2024-01-25T13:19:04;9.90;65.70
21805;DHT22;11064;47.102;15.452;2024-01-25T13:21:32;9.80;66.90
21805;DHT22;11064;47.102;15.452;2024-01-25T13:24:00;9.90;66.10
21805;DHT22;11064;47.102;15.452;2024-01-25T13:26:26;10.00;65.10
21805;DHT22;11064;47.102;15.452;2024-01-25T13:28:52;9.90;65.80
21805;DHT22;11064;47.102;15.452;2024-01-25T13:31:18;9.90;67.00
21805;DHT22;11064;47.102;15.452;2024-01-25T13:33:44;10.00;66.10
21805;DHT22;11064;47.102;15.452;2024-01-25T13:36:11;9.90;66.60
21805;DHT22;11064;47.102;15.452;2024-01-25T13:38:40;9.90;66.60
21805;DHT22;11064;47.102;15.452;2024-01-25T13:41:05;9.80;67.40
21805;DHT22;11064;47.102;15.452;2024-01-25T13:43:31;9.70;66.00
21805;DHT22;11064;47.102;15.452;2024-01-25T13:45:57;9.70;67.00
21805;DHT22;11064;47.102;15.452;2024-01-25T13:48:23;9.60;67.80
21805;DHT22;11064;47.102;15.452;2024-01-25T13:50:49;9.60;67.20
21805;DHT22;11064;47.102;15.452;2024-01-25T13:53:15;9.70;66.70
21805;DHT22;11064;47.102;15.452;2024-01-25T13:55:41;9.70;67.50
21805;DHT22;11064;47.102;15.452;2024-01-25T13:58:06;9.60;66.50
21805;DHT22;11064;47.102;15.452;2024-01-25T14:00:32;9.70;66.10
21805;DHT22;11064;47.102;15.452;2024-01-25T14:02:58;9.60;66.80
21805;DHT22;11064;47.102;15.452;2024-01-25T14:05:24;9.60;66.60
21805;DHT22;11064;47.102;15.452;2024-01-25T14:07:50;9.60;65.40
21805;DHT22;11064;47.102;15.452;2024-01-25T14:10:16;9.60;65.80
21805;DHT22;11064;47.102;15.452;2024-01-25T14:12:41;9.60;65.20
21805;DHT22;11064;47.102;15.452;2024-01-25T14:15:07;9.50;65.40
21805;DHT22;11064;47.102;15.452;2024-01-25T14:17:33;9.60;64.50
21805;DHT22;11064;47.102;15.452;2024-01-25T14:20:02;9.60;65.40
21805;DHT22;11064;47.102;15.452;2024-01-25T14:22:28;9.60;63.30
21805;DHT22;11064;47.102;15.452;2024-01-25T14:24:54;9.60;64.30
21805;DHT22;11064;47.102;15.452;2024-01-25T14:27:20;9.60;64.00
21805;DHT22;11064;47.102;15.452;2024-01-25T14:29:46;9.50;64.70
21805;DHT22;11064;47.102;15.452;2024-01-25T14:32:11;9.50;64.60
21805;DHT22;11064;47.102;15.452;2024-01-25T14:34:37;9.60;62.80
21805;DHT22;11064;47.102;15.452;2024-01-25T14:37:03;9.50;63.00
21805;DHT22;11064;47.102;15.452;2024-01-25T14:39:29;9.60;62.50
21805;DHT22;11064;47.102;15.452;2024-01-25T14:41:55;9.50;63.10
21805;DHT22;11064;47.102;15.452;2024-01-25T14:44:21;9.40;64.30
21805;DHT22;11064;47.102;15.452;2024-01-25T14:46:46;9.30;64.00
21805;DHT22;11064;47.102;15.452;2024-01-25T14:49:12;9.20;64.20
21805;DHT22;11064;47.102;15.452;2024-01-25T14:51:38;9.20;64.40
21805;DHT22;11064;47.102;15.452;2024-01-25T14:54:04;9.30;63.10
21805;DHT22;11064;47.102;15.452;2024-01-25T14:56:29;9.20;64.60
21805;DHT22;11064;47.102;15.452;2024-01-25T14:58:55;9.20;63.70
21805;DHT22;11064;47.102;15.452;2024-01-25T15:01:21;9.30;63.70
21805;DHT22;11064;47.102;15.452;2024-01-25T15:03:53;9.20;63.40
21805;DHT22;11064;47.102;15.452;2024-01-25T15:06:20;9.30;62.30
21805;DHT22;11064;47.102;15.452;2024-01-25T15:08:45;9.30;62.70
21805;DHT22;11064;47.102;15.452;2024-01-25T15:11:12;9.30;62.70
21805;DHT22;11064;47.102;15.452;2024-01-25T15:13:37;9.10;63.20
21805;DHT22;11064;47.102;15.452;2024-01-25T15:16:03;9.00;63.60
21805;DHT22;11064;47.102;15.452;2024-01-25T15:18:29;9.00;63.10
21805;DHT22;11064;47.102;15.452;2024-01-25T15:20:56;8.90;63.50
21805;DHT22;11064;47.102;15.452;2024-01-25T15:23:22;8.80;63.50
21805;DHT22;11064;47.102;15.452;2024-01-25T15:25:48;8.70;63.90
21805;DHT22;11064;47.102;15.452;2024-01-25T15:28:15;8.70;64.00
21805;DHT22;11064;47.102;15.452;2024-01-25T15:30:41;8.70;63.50
21805;DHT22;11064;47.102;15.452;2024-01-25T15:33:07;8.70;63.70
21805;DHT22;11064;47.102;15.452;2024-01-25T15:35:33;8.60;64.00
21805;DHT22;11064;47.102;15.452;2024-01-25T15:37:59;8.70;63.60
21805;DHT22;11064;47.102;15.452;2024-01-25T15:40:34;8.60;63.90
21805;DHT22;11064;47.102;15.452;2024-01-25T15:43:00;8.50;63.70
21805;DHT22;11064;47.102;15.452;2024-01-25T15:45:26;8.40;64.50
21805;DHT22;11064;47.102;15.452;2024-01-25T15:47:51;8.20;64.90
21805;DHT22;11064;47.102;15.452;2024-01-25T15:50:17;8.10;64.40
21805;DHT22;11064;47.102;15.452;2024-01-25T15:52:46;8.40;64.20
21805;DHT22;11064;47.102;15.452;2024-01-25T15:55:12;8.30;64.20
21805;DHT22;11064;47.102;15.452;2024-01-25T15:57:38;8.20;64.30
21805;DHT22;11064;47.102;15.452;2024-01-25T16:00:04;8.20;64.90
21805;DHT22;11064;47.102;15.452;2024-01-25T16:02:30;8.20;62.90
21805;DHT22;11064;47.102;15.452;2024-01-25T16:04:56;8.10;63.60
21805;DHT22;11064;47.102;15.452;2024-01-25T16:07:22;8.10;64.50
21805;DHT22;11064;47.102;15.452;2024-01-25T16:09:48;8.00;65.10
21805;DHT22;11064;47.102;15.452;2024-01-25T16:12:14;7.90;64.80
21805;DHT22;11064;47.102;15.452;2024-01-25T16:14:40;8.00;64.60
21805;DHT22;11064;47.102;15.452;2024-01-25T16:17:06;8.00;65.40
21805;DHT22;11064;47.102;15.452;2024-01-25T16:19:35;7.80;66.30
21805;DHT22;11064;47.102;15.452;2024-01-25T16:22:01;7.80;65.60
21805;DHT22;11064;47.102;15.452;2024-01-25T16:24:27;7.90;65.40
21805;DHT22;11064;47.102;15.452;2024-01-25T16:26:53;7.80;65.70
21805;DHT22;11064;47.102;15.452;2024-01-25T16:29:19;7.90;65.40
21805;DHT22;11064;47.102;15.452;2024-01-25T16:31:44;7.80;65.90
21805;DHT22;11064;47.102;15.452;2024-01-25T16:34:10;7.80;65.30
21805;DHT22;11064;47.102;15.452;2024-01-25T16:36:36;7.90;65.50
21805;DHT22;11064;47.102;15.452;2024-01-25T16:39:02;7.70;65.40
21805;DHT22;11064;47.102;15.452;2024-01-25T16:41:28;7.90;64.90
21805;DHT22;11064;47.102;15.452;2024-01-25T16:43:54;7.80;65.40
21805;DHT22;11064;47.102;15.452;2024-01-25T16:46:19;7.70;66.40
21805;DHT22;11064;47.102;15.452;2024-01-25T16:48:45;7.70;66.20
21805;DHT22;11064;47.102;15.452;2024-01-25T16:51:11;7.70;66.40
21805;DHT22;11064;47.102;15.452;2024-01-25T16:53:37;7.70;66.10
21805;DHT22;11064;47.102;15.452;2024-01-25T16:56:03;7.80;65.70
21805;DHT22;11064;47.102;15.452;2024-01-25T16:58:28;7.60;66.20
21805;DHT22;11064;47.102;15.452;2024-01-25T17:00:54;7.70;66.70
21805;DHT22;11064;47.102;15.452;2024-01-25T17:03:21;7.60;66.70
21805;DHT22;11064;47.102;15.452;2024-01-25T17:05:46;7.40;67.50
21805;DHT22;11064;47.102;15.452;2024-01-25T17:08:12;7.30;68.20
21805;DHT22;11064;47.102;15.452;2024-01-25T17:10:38;7.20;68.70
21805;DHT22;11064;47.102;15.452;2024-01-25T17:13:04;7.00;69.30
21805;DHT22;11064;47.102;15.452;2024-01-25T17:15:30;7.00;69.80
21805;DHT22;11064;47.102;15.452;2024-01-25T17:17:56;7.10;69.50
21805;DHT22;11064;47.102;15.452;2024-01-25T17:20:22;6.90;69.80
21805;DHT22;11064;47.102;15.452;2024-01-25T17:22:47;6.80;70.90
21805;DHT22;11064;47.102;15.452;2024-01-25T17:25:14;6.70;71.00
21805;DHT22;11064;47.102;15.452;2024-01-25T17:27:40;6.60;71.20
21805;DHT22;11064;47.102;15.452;2024-01-25T17:30:06;6.70;69.70
21805;DHT22;11064;47.102;15.452;2024-01-25T17:32:33;6.80;70.20
21805;DHT22;11064;47.102;15.452;2024-01-25T17:34:59;6.90;69.50
21805;DHT22;11064;47.102;15.452;2024-01-25T17:37:25;7.00;68.10
21805;DHT22;11064;47.102;15.452;2024-01-25T17:39:51;6.90;68.90
21805;DHT22;11064;47.102;15.452;2024-01-25T17:42:17;6.90;68.30
21805;DHT22;11064;47.102;15.452;2024-01-25T17:44:43;7.10;68.50
21805;DHT22;11064;47.102;15.452;2024-01-25T17:47:09;7.10;68.50
21805;DHT22;11064;47.102;15.452;2024-01-25T17:49:35;7.20;67.40
21805;DHT22;11064;47.102;15.452;2024-01-25T17:52:00;7.20;66.80
21805;DHT22;11064;47.102;15.452;2024-01-25T17:54:26;7.20;66.30
21805;DHT22;11064;47.102;15.452;2024-01-25T17:56:52;7.20;66.30
21805;DHT22;11064;47.102;15.452;2024-01-25T17:59:18;7.20;65.40
21805;DHT22;11064;47.102;15.452;2024-01-25T18:01:46;7.20;65.40
21805;DHT22;11064;47.102;15.452;2024-01-25T18:04:12;7.20;65.70
21805;DHT22;11064;47.102;15.452;2024-01-25T18:06:38;7.30;64.70
21805;DHT22;11064;47.102;15.452;2024-01-25T18:09:03;7.20;65.50
21805;DHT22;11064;47.102;15.452;2024-01-25T18:11:29;7.30;64.40
21805;DHT22;11064;47.102;15.452;2024-01-25T18:13:55;7.20;64.30
21805;DHT22;11064;47.102;15.452;2024-01-25T18:16:22;7.10;64.30
21805;DHT22;11064;47.102;15.452;2024-01-25T18:18:48;7.00;64.80
21805;DHT22;11064;47.102;15.452;2024-01-25T18:21:14;6.80;65.80
21805;DHT22;11064;47.102;15.452;2024-01-25T18:23:40;6.80;65.40
21805;DHT22;11064;47.102;15.452;2024-01-25T18:26:06;6.80;64.90
21805;DHT22;11064;47.102;15.452;2024-01-25T18:28:33;6.70;65.00
21805;DHT22;11064;47.102;15.452;2024-01-25T18:31:01;6.70;65.20
21805;DHT22;11064;47.102;15.452;2024-01-25T18:33:27;6.60;65.10
21805;DHT22;11064;47.102;15.452;2024-01-25T18:35:53;6.60;64.00
21805;DHT22;11064;47.102;15.452;2024-01-25T18:38:19;7.10;63.40
21805;DHT22;11064;47.102;15.452;2024-01-25T18:40:45;7.30;62.50
21805;DHT22;11064;47.102;15.452;2024-01-25T18:43:12;7.30;62.50
21805;DHT22;11064;47.102;15.452;2024-01-25T18:45:38;7.30;62.10
21805;DHT22;11064;47.102;15.452;2024-01-25T18:48:05;7.30;62.80
21805;DHT22;11064;47.102;15.452;2024-01-25T18:50:32;7.10;63.30
21805;DHT22;11064;47.102;15.452;2024-01-25T18:52:58;6.90;63.10
21805;DHT22;11064;47.102;15.452;2024-01-25T18:55:26;6.70;63.60
21805;DHT22;11064;47.102;15.452;2024-01-25T18:57:53;6.60;64.20
21805;DHT22;11064;47.102;15.452;2024-01-25T19:00:20;6.60;64.20
21805;DHT22;11064;47.102;15.452;2024-01-25T19:02:48;6.50;63.90
21805;DHT22;11064;47.102;15.452;2024-01-25T19:05:15;6.50;64.20
21805;DHT22;11064;47.102;15.452;2024-01-25T19:07:42;6.50;64.20
21805;DHT22;11064;47.102;15.452;2024-01-25T19:10:10;6.50;63.90
21805;DHT22;11064;47.102;15.452;2024-01-25T19:12:37;6.80;63.80
21805;DHT22;11064;47.102;15.452;2024-01-25T19:15:06;6.70;63.60
21805;DHT22;11064;47.102;15.452;2024-01-25T19:17:34;6.90;63.30
21805;DHT22;11064;47.102;15.452;2024-01-25T19:20:00;6.80;63.20
21805;DHT22;11064;47.102;15.452;2024-01-25T19:22:27;6.80;63.70
21805;DHT22;11064;47.102;15.452;2024-01-25T19:24:54;6.60;64.10
21805;DHT22;11064;47.102;15.452;2024-01-25T19:27:21;6.30;65.30
21805;DHT22;11064;47.102;15.452;2024-01-25T19:29:47;6.10;66.20
21805;DHT22;11064;47.102;15.452;2024-01-25T19:32:13;5.90;67.10
21805;DHT22;11064;47.102;15.452;2024-01-25T19:34:40;5.80;68.10
21805;DHT22;11064;47.102;15.452;2024-01-25T19:37:06;5.70;68.00
21805;DHT22;11064;47.102;15.452;2024-01-25T19:39:32;6.00;66.80
21805;DHT22;11064;47.102;15.452;2024-01-25T19:41:59;6.20;66.10
21805;DHT22;11064;47.102;15.452;2024-01-25T19:44:25;6.20;66.00
21805;DHT22;11064;47.102;15.452;2024-01-25T19:46:51;6.20;65.40
21805;DHT22;11064;47.102;15.452;2024-01-25T19:49:18;6.20;65.40
21805;DHT22;11064;47.102;15.452;2024-01-25T19:51:44;6.10;65.20
21805;DHT22;11064;47.102;15.452;2024-01-25T19:54:11;6.20;63.70
21805;DHT22;11064;47.102;15.452;2024-01-25T19:56:38;6.30;63.60
21805;DHT22;11064;47.102;15.452;2024-01-25T19:59:04;6.20;64.40
21805;DHT22;11064;47.102;15.452;2024-01-25T20:01:31;6.10;65.10
21805;DHT22;11064;47.102;15.452;2024-01-25T20:03:58;5.90;66.10
21805;DHT22;11064;47.102;15.452;2024-01-25T20:06:26;5.80;66.50
21805;DHT22;11064;47.102;15.452;2024-01-25T20:08:56;5.60;67.10
21805;DHT22;11064;47.102;15.452;2024-01-25T20:11:23;5.50;67.50
21805;DHT22;11064;47.102;15.452;2024-01-25T20:13:49;5.40;68.10
21805;DHT22;11064;47.102;15.452;2024-01-25T20:16:16;5.60;67.20
21805;DHT22;11064;47.102;15.452;2024-01-25T20:18:44;5.80;66.00
21805;DHT22;11064;47.102;15.452;2024-01-25T20:21:11;6.10;64.40
21805;DHT22;11064;47.102;15.452;2024-01-25T20:23:37;6.20;63.30
21805;DHT22;11064;47.102;15.452;2024-01-25T20:26:04;6.10;63.40